South Charleston, Ohio
Current Conditions -  °F | °C
As of 4:56 PM on Friday 24 Oct 2014 (Local Time) from KSGH Reporting Station
Clear Clear  
Wind Chill: 65°   Ceiling: Unl
Heat Index: 65°   Visibility: 9mi
Dew Point: 39°   Wind: 7mph
Humidity: 38%   Direction: 220°SW
Pressure: 30.04"   Gusts: NA
Location:  39.83°N, 83.63°W
Report Text: KSGH 242056Z AUTO 22006KT 9SM CLR 18/04 A3004 RMK AO2 56016 T01830038 SLP172
Loading
Personal Weather Stations






























Interactive Weather Map
Tropical Storm Tracking
New forecast layout! Learn more

10-Day Weather Forecast

Advertisements
Track Severe Weather on mobile